Time;durP1;ratioP1;P1;durP2;ratioP2;P2;SDS_P1;SDS_P2;PMS_P1;PMS_P2;Temp;Humidity;BMP_temperature;BMP_pressure;BME280_temperature;BME280_humidity;BME280_pressure;Samples;Min_cycle;Max_cycle;Signal;HPM_P1;HPM_P2
2023/08/27 00:00:52;;;;;;;11.87;5.20;;;;;;;26.50;56.04;100194.67;124659;1099;104721;-75
2023/08/27 00:03:44;;;;;;;11.10;5.50;;;;;;;26.48;56.61;100193.85;124608;1102;104175;-75
2023/08/27 00:06:15;;;;;;;11.70;5.50;;;;;;;26.46;56.20;100184.94;124493;1100;102274;-78
2023/08/27 00:08:46;;;;;;;9.07;4.90;;;;;;;26.48;56.24;100183.09;124528;1099;102134;-77
2023/08/27 00:11:17;;;;;;;11.50;5.27;;;;;;;26.49;56.20;100180.34;124579;1099;104412;-77
2023/08/27 00:13:49;;;;;;;11.43;5.47;;;;;;;26.51;56.32;100172.22;124362;1102;101871;-76
2023/08/27 00:16:20;;;;;;;11.50;5.23;;;;;;;26.48;56.37;100175.89;124342;1102;102090;-78
2023/08/27 00:18:51;;;;;;;7.90;4.97;;;;;;;26.46;56.32;100175.08;124447;1102;102045;-77
2023/08/27 00:21:22;;;;;;;12.83;5.60;;;;;;;26.43;56.62;100177.88;124504;1099;102113;-78
2023/08/27 00:23:54;;;;;;;10.23;5.50;;;;;;;26.41;56.90;100166.27;124493;1102;104194;-78
2023/08/27 00:26:25;;;;;;;11.83;5.23;;;;;;;26.38;56.33;100171.75;124484;1102;104163;-76
2023/08/27 00:28:58;;;;;;;11.60;5.30;;;;;;;26.35;56.26;100166.48;124497;1101;104273;-77
2023/08/27 00:31:29;;;;;;;9.78;5.25;;;;;;;26.34;56.38;100175.50;124366;1102;104210;-77
2023/08/27 00:34:01;;;;;;;13.50;5.10;;;;;;;26.33;56.64;100171.95;124437;1102;104284;-77
2023/08/27 00:36:32;;;;;;;13.20;5.03;;;;;;;26.33;56.52;100179.11;124522;1102;104188;-77
2023/08/27 00:39:05;;;;;;;9.37;5.10;;;;;;;26.31;56.73;100173.78;124426;1102;104165;-77
2023/08/27 00:41:36;;;;;;;8.77;5.30;;;;;;;26.29;56.84;100178.34;124466;1102;104195;-77
2023/08/27 00:44:08;;;;;;;9.50;5.23;;;;;;;26.31;56.34;100180.98;124608;1102;104269;-77
2023/08/27 00:46:40;;;;;;;9.97;5.07;;;;;;;26.32;56.45;100185.45;124420;1102;104284;-77
2023/08/27 00:49:12;;;;;;;8.87;5.50;;;;;;;26.31;56.75;100180.98;124490;1101;104262;-76
2023/08/27 00:51:45;;;;;;;9.28;5.20;;;;;;;26.28;56.67;100173.89;124413;1102;102094;-77
2023/08/27 00:54:17;;;;;;;10.72;5.62;;;;;;;26.23;56.80;100172.31;124465;1102;104183;-77
2023/08/27 00:56:49;;;;;;;11.80;5.23;;;;;;;26.21;56.85;100168.78;124450;1102;104194;-76
2023/08/27 00:59:21;;;;;;;8.50;5.15;;;;;;;26.21;56.91;100174.16;124511;1102;104325;-78
2023/08/27 01:01:53;;;;;;;8.77;5.30;;;;;;;26.23;56.73;100180.38;124343;1101;102195;-77
2023/08/27 01:04:24;;;;;;;7.53;5.30;;;;;;;26.25;56.81;100186.58;124493;1100;102083;-77
2023/08/27 01:06:57;;;;;;;9.63;4.87;;;;;;;26.23;56.55;100185.76;124369;1099;104303;-78
2023/08/27 01:09:34;;;;;;;10.33;5.23;;;;;;;26.21;56.57;100184.91;124416;1100;101848;-76
2023/08/27 01:12:14;;;;;;;11.83;5.20;;;;;;;26.19;56.60;100176.89;124440;1099;101919;-78
2023/08/27 01:14:49;;;;;;;11.30;5.20;;;;;;;26.19;57.00;100174.20;124406;1102;104377;-77
2023/08/27 01:17:24;;;;;;;10.80;5.90;;;;;;;26.19;56.86;100166.14;124519;1102;101947;-76
2023/08/27 01:19:55;;;;;;;9.73;5.50;;;;;;;26.17;56.89;100159.95;124530;1102;104191;-78
2023/08/27 01:22:27;;;;;;;7.87;5.20;;;;;;;26.19;56.53;100160.77;124541;1100;104166;-78
2023/08/27 01:24:58;;;;;;;12.10;5.27;;;;;;;26.18;56.77;100167.09;124531;1099;101909;-77
2023/08/27 01:27:35;;;;;;;9.75;5.15;;;;;;;26.17;56.96;100174.26;124486;1099;104326;-78
2023/08/27 01:30:16;;;;;;;10.63;5.60;;;;;;;26.13;57.30;100179.79;124528;1102;104326;-77
2023/08/27 01:32:52;;;;;;;8.80;4.70;;;;;;;26.10;56.84;100177.20;124623;1102;102029;-78
2023/08/27 01:35:28;;;;;;;9.03;5.37;;;;;;;26.09;57.05;100170.09;124649;1102;102012;-79
2023/08/27 01:38:01;;;;;;;10.43;5.10;;;;;;;26.06;57.22;100170.20;124621;1100;101914;-79
2023/08/27 01:40:33;;;;;;;10.47;5.63;;;;;;;26.01;57.05;100162.28;124583;1102;101916;-78
2023/08/27 01:43:04;;;;;;;9.33;5.20;;;;;;;25.99;57.33;100162.33;124694;1099;102039;-79
2023/08/27 01:45:36;;;;;;;13.00;5.57;;;;;;;25.98;57.09;100159.70;124604;1099;104277;-78
2023/08/27 01:48:08;;;;;;;8.50;5.13;;;;;;;25.98;57.20;100159.70;124474;1102;104300;-78
2023/08/27 01:50:39;;;;;;;11.47;5.50;;;;;;;25.93;57.10;100161.61;124568;1102;101945;-78
2023/08/27 01:53:10;;;;;;;9.67;5.37;;;;;;;25.92;57.56;100162.55;124524;1099;105516;-78
2023/08/27 01:55:41;;;;;;;9.97;5.27;;;;;;;25.88;57.22;100156.38;124759;1102;101791;-76
2023/08/27 01:58:13;;;;;;;9.37;5.13;;;;;;;25.87;57.24;100149.27;124438;1102;104324;-77
2023/08/27 02:00:44;;;;;;;12.50;5.47;;;;;;;25.85;57.22;100161.86;124454;1102;101842;-77
2023/08/27 02:03:16;;;;;;;8.93;5.50;;;;;;;25.84;57.59;100152.06;124509;1102;101926;-78
2023/08/27 02:05:49;;;;;;;19.90;5.83;;;;;;;25.81;57.79;100155.72;124552;1099;104075;-77
2023/08/27 02:08:21;;;;;;;10.50;5.57;;;;;;;25.81;57.91;100144.96;124475;1099;104236;-77
2023/08/27 02:10:52;;;;;;;18.20;5.87;;;;;;;25.81;57.92;100149.47;124451;1099;104176;-78
2023/08/27 02:13:23;;;;;;;9.00;5.23;;;;;;;25.80;58.00;100143.23;124500;1099;104323;-78
2023/08/27 02:15:55;;;;;;;8.70;5.33;;;;;;;25.78;57.70;100139.69;124535;1102;102032;-78
2023/08/27 02:18:26;;;;;;;13.13;5.80;;;;;;;25.77;57.99;100137.95;124485;1102;102424;-78
2023/08/27 02:20:58;;;;;;;11.47;5.43;;;;;;;25.77;57.50;100137.05;124515;1102;104214;-78
2023/08/27 02:23:30;;;;;;;12.60;5.53;;;;;;;25.75;57.74;100138.92;124466;1102;101832;-77
2023/08/27 02:26:01;;;;;;;11.37;5.43;;;;;;;25.73;57.65;100136.28;124413;1102;101998;-77
2023/08/27 02:28:33;;;;;;;11.50;5.80;;;;;;;25.74;58.04;100142.53;124371;1099;102465;-77
2023/08/27 02:31:05;;;;;;;10.33;5.53;;;;;;;25.67;58.30;100144.55;124308;1099;104057;-77
2023/08/27 02:33:37;;;;;;;11.17;5.50;;;;;;;25.65;58.28;100151.78;124579;1102;104177;-78
2023/08/27 02:36:08;;;;;;;8.87;5.50;;;;;;;25.60;57.89;100151.94;124458;1102;104319;-77
2023/08/27 02:38:39;;;;;;;11.40;5.70;;;;;;;25.60;58.26;100153.72;124477;1102;101852;-77
2023/08/27 02:41:13;;;;;;;11.90;5.77;;;;;;;25.58;58.20;100156.45;124447;1102;101922;-78
2023/08/27 02:43:44;;;;;;;12.60;5.50;;;;;;;25.56;58.09;100154.77;124487;1102;104025;-78
2023/08/27 02:46:15;;;;;;;8.83;5.33;;;;;;;25.53;58.63;100149.48;124556;1099;104201;-78
2023/08/27 02:48:46;;;;;;;11.50;5.27;;;;;;;25.52;58.84;100148.59;124559;1101;104198;-79
2023/08/27 02:51:18;;;;;;;10.00;5.43;;;;;;;25.50;58.76;100149.59;124669;1100;101832;-77
2023/08/27 02:53:51;;;;;;;10.47;5.27;;;;;;;25.45;58.76;100153.28;124398;1100;103618;-76
2023/08/27 02:56:22;;;;;;;11.20;5.83;;;;;;;25.43;58.64;100154.25;124394;1102;104252;-77
2023/08/27 02:58:54;;;;;;;13.70;5.87;;;;;;;25.42;58.98;100149.83;124535;1102;102024;-78
2023/08/27 03:01:25;;;;;;;15.30;5.83;;;;;;;25.42;58.94;100152.52;124552;1101;104243;-77
2023/08/27 03:03:57;;;;;;;13.23;5.73;;;;;;;25.39;59.15;100145.42;124388;1102;104323;-77
2023/08/27 03:06:28;;;;;;;13.40;5.70;;;;;;;25.37;58.94;100139.23;124437;1102;117801;-77
2023/08/27 03:09:01;;;;;;;10.53;5.60;;;;;;;25.36;59.22;100144.64;124332;1102;104163;-78
2023/08/27 03:11:32;;;;;;;8.30;5.47;;;;;;;25.35;59.48;100143.74;124506;1102;104172;-77
2023/08/27 03:14:04;;;;;;;10.50;5.50;;;;;;;25.34;59.65;100142.01;124383;1102;104175;-79
2023/08/27 03:16:36;;;;;;;9.67;5.73;;;;;;;25.35;59.52;100138.38;124499;1102;102332;-77
2023/08/27 03:19:08;;;;;;;10.70;5.50;;;;;;;25.32;59.51;100137.60;124459;1102;102137;-77
2023/08/27 03:21:40;;;;;;;12.23;5.70;;;;;;;25.30;59.25;100133.14;124488;1102;104230;-78
2023/08/27 03:24:11;;;;;;;12.63;5.43;;;;;;;25.28;59.26;100139.48;124349;1102;101973;-78
2023/08/27 03:26:43;;;;;;;10.87;5.80;;;;;;;25.20;59.82;100146.90;124321;1102;111563;-77
2023/08/27 03:29:14;;;;;;;11.50;5.77;;;;;;;25.17;59.46;100146.98;124303;1102;101960;-77
2023/08/27 03:31:46;;;;;;;9.43;5.17;;;;;;;25.17;59.90;100147.86;124307;1102;104320;-77
2023/08/27 03:34:17;;;;;;;13.37;5.67;;;;;;;25.21;60.02;100148.63;124332;1100;104441;-77
2023/08/27 03:36:49;;;;;;;11.00;6.00;;;;;;;25.21;59.68;100152.22;124334;1102;104325;-77
2023/08/27 03:39:20;;;;;;;10.90;5.10;;;;;;;25.22;60.09;100156.64;124284;1102;102164;-77
2023/08/27 03:41:51;;;;;;;10.93;5.23;;;;;;;25.21;60.16;100157.59;124419;1100;104337;-77
2023/08/27 03:44:24;;;;;;;10.40;5.47;;;;;;;25.21;59.79;100159.37;124324;1102;104636;-77
2023/08/27 03:46:55;;;;;;;11.77;5.57;;;;;;;25.18;60.24;100168.42;124366;1102;101931;-77
2023/08/27 03:49:26;;;;;;;10.73;5.23;;;;;;;25.19;59.95;100156.73;124420;1102;104169;-78
2023/08/27 03:51:58;;;;;;;9.30;5.57;;;;;;;25.19;59.98;100156.73;124504;1099;104172;-77
2023/08/27 03:54:30;;;;;;;12.20;5.33;;;;;;;25.22;60.31;100163.83;124461;1102;104166;-77
2023/08/27 03:57:01;;;;;;;12.20;5.50;;;;;;;25.19;60.32;100150.50;124515;1102;104201;-77
2023/08/27 03:59:32;;;;;;;13.00;5.40;;;;;;;25.23;60.09;100154.86;124402;1102;104377;-77
2023/08/27 04:02:04;;;;;;;9.27;5.23;;;;;;;25.26;60.26;100152.95;124344;1102;104229;-77
2023/08/27 04:04:36;;;;;;;9.47;5.70;;;;;;;25.30;60.07;100164.50;125485;1100;101842;-77
2023/08/27 04:07:07;;;;;;;12.97;5.47;;;;;;;25.33;59.80;100150.11;124382;1099;104200;-77
2023/08/27 04:09:39;;;;;;;11.97;5.80;;;;;;;25.36;60.00;100153.57;124574;1102;104208;-77
2023/08/27 04:12:10;;;;;;;7.97;5.30;;;;;;;25.39;59.83;100150.79;124604;1099;102012;-77
2023/08/27 04:14:42;;;;;;;9.30;5.17;;;;;;;25.38;59.76;100151.70;124755;1102;104241;-77
2023/08/27 04:17:13;;;;;;;11.07;5.73;;;;;;;25.37;59.81;100152.66;124643;1099;104291;-77
2023/08/27 04:19:45;;;;;;;12.37;5.70;;;;;;;25.35;60.27;100157.17;124693;1101;104169;-78
2023/08/27 04:22:18;;;;;;;11.80;5.40;;;;;;;25.37;59.89;100163.39;124452;1102;104169;-77
2023/08/27 04:24:49;;;;;;;10.80;5.43;;;;;;;25.43;59.93;100159.63;124431;1102;104189;-76
2023/08/27 04:27:20;;;;;;;10.80;5.43;;;;;;;25.45;59.75;100164.03;124525;1102;102002;-77
2023/08/27 04:29:52;;;;;;;11.63;5.33;;;;;;;25.48;60.40;100157.69;124632;1102;104169;-77
2023/08/27 04:32:23;;;;;;;10.67;5.40;;;;;;;25.50;59.86;100160.33;124746;1099;104300;-77
2023/08/27 04:34:55;;;;;;;12.00;5.47;;;;;;;25.51;59.92;100160.28;124609;1099;101907;-76
2023/08/27 04:37:26;;;;;;;8.90;5.07;;;;;;;25.55;60.17;100169.11;124397;1099;104057;-76
2023/08/27 04:39:57;;;;;;;9.23;5.40;;;;;;;25.57;60.04;100167.25;124223;1102;104277;-75
2023/08/27 04:42:29;;;;;;;9.83;5.40;;;;;;;25.60;60.29;100161.78;124324;1102;104166;-76
2023/08/27 04:45:00;;;;;;;11.73;5.37;;;;;;;25.65;60.13;100165.22;124221;1102;104220;-76
2023/08/27 04:47:31;;;;;;;9.77;5.07;;;;;;;25.67;59.59;100167.86;124264;1102;104316;-76
2023/08/27 04:50:04;;;;;;;10.60;5.10;;;;;;;25.69;59.79;100164.17;124203;1099;104348;-75
2023/08/27 04:52:36;;;;;;;9.60;5.10;;;;;;;25.68;60.22;100165.13;124120;1102;104220;-74
2023/08/27 04:55:09;;;;;;;7.20;4.90;;;;;;;25.69;59.82;100176.73;124269;1099;104284;-75
2023/08/27 04:57:40;;;;;;;9.60;5.23;;;;;;;25.71;60.04;100170.40;124345;1102;102015;-75
2023/08/27 05:00:20;;;;;;;9.70;5.27;;;;;;;25.76;60.09;100173.80;124304;1102;104153;-77
2023/08/27 05:02:51;;;;;;;11.33;4.70;;;;;;;25.80;59.79;100172.79;124378;1102;104291;-75
2023/08/27 05:05:23;;;;;;;9.67;4.90;;;;;;;25.85;59.87;100172.61;124280;1102;101884;-75
2023/08/27 05:07:54;;;;;;;10.25;5.10;;;;;;;25.89;59.93;100174.27;124384;1102;104187;-76
2023/08/27 05:10:26;;;;;;;9.60;5.00;;;;;;;25.93;59.83;100165.19;124390;1099;104172;-75
2023/08/27 05:12:57;;;;;;;9.60;5.10;;;;;;;25.97;59.38;100168.65;124368;1102;104173;-75
2023/08/27 05:15:28;;;;;;;9.20;5.20;;;;;;;26.04;59.90;100169.34;124275;1099;104095;-75
2023/08/27 05:18:00;;;;;;;11.80;4.90;;;;;;;26.08;59.64;100174.56;124252;1102;104204;-74
2023/08/27 05:20:31;;;;;;;9.87;5.33;;;;;;;26.14;59.52;100184.25;124338;1102;104238;-74
2023/08/27 05:23:02;;;;;;;8.60;5.10;;;;;;;26.21;59.56;100184.91;124318;1102;102054;-74
2023/08/27 05:25:35;;;;;;;10.70;5.03;;;;;;;26.25;59.43;100186.58;125181;1101;104245;-76
2023/08/27 05:28:07;;;;;;;15.23;5.23;;;;;;;26.30;59.44;100180.12;124368;1102;102025;-76
2023/08/27 05:30:39;;;;;;;9.83;5.33;;;;;;;26.36;59.46;100195.14;124408;1102;102143;-75
2023/08/27 05:33:10;;;;;;;10.03;5.07;;;;;;;26.37;59.55;100187.02;124368;1099;104420;-75
2023/08/27 05:35:42;;;;;;;10.43;5.63;;;;;;;26.33;58.98;100190.77;124334;1100;104249;-75
2023/08/27 05:38:13;;;;;;;9.63;5.33;;;;;;;26.33;59.31;100190.77;124378;1099;102392;-75
2023/08/27 05:40:44;;;;;;;9.57;5.40;;;;;;;26.30;58.68;100189.97;124481;1102;101941;-76
2023/08/27 05:43:16;;;;;;;8.53;5.10;;;;;;;26.31;59.06;100186.37;124447;1102;104246;-77
2023/08/27 05:45:47;;;;;;;7.27;4.77;;;;;;;26.32;58.56;100189.00;124453;1102;102135;-76
2023/08/27 05:48:20;;;;;;;13.18;4.92;;;;;;;26.38;59.29;100185.20;124301;1100;104232;-75
2023/08/27 05:50:51;;;;;;;11.73;5.20;;;;;;;26.45;59.08;100181.38;124299;1102;104320;-75
2023/08/27 05:53:22;;;;;;;7.85;4.80;;;;;;;26.54;59.15;100183.74;124361;1099;104159;-75
2023/08/27 05:55:54;;;;;;;7.90;5.23;;;;;;;26.61;59.04;100179.02;124325;1102;104159;-76
2023/08/27 05:58:25;;;;;;;7.90;4.63;;;;;;;26.67;58.99;100172.58;124401;1099;104197;-75
2023/08/27 06:00:56;;;;;;;11.30;5.20;;;;;;;26.72;58.94;100167.89;124443;1102;104193;-77
2023/08/27 06:03:28;;;;;;;11.40;4.63;;;;;;;26.74;58.70;100163.36;124411;1102;104197;-76
2023/08/27 06:05:59;;;;;;;9.13;4.80;;;;;;;26.82;58.29;100163.08;124391;1102;101935;-74
2023/08/27 06:08:31;;;;;;;9.73;4.80;;;;;;;26.88;58.30;100166.41;124360;1102;102092;-75
2023/08/27 06:11:04;;;;;;;12.47;5.40;;;;;;;26.94;58.31;100167.10;124340;1102;104275;-76
2023/08/27 06:13:34;;;;;;;;;;;;;;;26.99;57.91;100157.93;124402;1099;104204;-75
2023/08/27 06:16:05;;;;;;;8.33;5.10;;;;;;;27.05;58.09;100162.19;124329;1099;104220;-74
2023/08/27 06:18:37;;;;;;;9.57;5.30;;;;;;;27.14;58.43;100160.97;124920;1099;104205;-76
2023/08/27 06:21:08;;;;;;;8.80;5.37;;;;;;;27.21;58.21;100163.37;124374;1102;101839;-76
2023/08/27 06:23:39;;;;;;;11.27;5.17;;;;;;;27.26;57.76;100166.75;124309;1099;104178;-75
2023/08/27 06:26:11;;;;;;;9.73;5.07;;;;;;;27.31;57.77;100158.52;124310;1102;101919;-75
2023/08/27 06:28:43;;;;;;;10.17;5.27;;;;;;;27.36;57.44;100156.55;124346;1098;101988;-76
2023/08/27 06:31:14;;;;;;;11.77;5.20;;;;;;;27.42;57.19;100160.80;124463;1099;104217;-75
2023/08/27 06:33:47;;;;;;;8.95;4.75;;;;;;;27.48;57.27;100165.08;124592;1099;104217;-77
2023/08/27 06:36:18;;;;;;;13.33;4.80;;;;;;;27.57;57.27;100165.58;124522;1099;104192;-76
2023/08/27 06:38:49;;;;;;;9.77;5.07;;;;;;;27.66;57.23;100163.44;124407;1099;103364;-76
2023/08/27 06:41:21;;;;;;;9.90;5.27;;;;;;;27.74;56.55;100167.59;125067;1098;102760;-77
2023/08/27 06:43:56;;;;;;;8.80;4.67;;;;;;;27.85;56.60;100164.45;124482;1099;104172;-77
2023/08/27 06:46:28;;;;;;;11.73;4.90;;;;;;;27.92;56.53;100171.33;124624;1099;104186;-76
2023/08/27 06:48:59;;;;;;;8.50;4.70;;;;;;;28.01;56.13;100170.11;124398;1099;104152;-76
2023/08/27 06:51:31;;;;;;;9.27;5.17;;;;;;;28.10;56.13;100168.86;124431;1101;101871;-79
2023/08/27 06:54:02;;;;;;;9.37;5.10;;;;;;;28.23;55.67;100167.38;124697;1102;102026;-78
2023/08/27 06:56:34;;;;;;;10.47;5.27;;;;;;;28.35;55.35;100176.77;124690;1102;104210;-78
2023/08/27 06:59:05;;;;;;;12.33;4.87;;;;;;;28.48;55.23;100169.02;124593;1102;104213;-78
2023/08/27 07:01:39;;;;;;;10.90;5.23;;;;;;;28.60;55.02;100170.34;124532;1099;104238;-78
2023/08/27 07:04:10;;;;;;;9.37;5.17;;;;;;;28.74;54.93;100173.29;124673;1099;101886;-79
2023/08/27 07:06:42;;;;;;;9.23;4.77;;;;;;;28.89;54.35;100169.03;124567;1098;102073;-78
2023/08/27 07:09:13;;;;;;;8.63;4.90;;;;;;;29.00;54.31;100171.20;124657;1099;103743;-79
2023/08/27 07:11:44;;;;;;;13.23;5.07;;;;;;;29.14;54.06;100162.46;124679;1102;102121;-77
2023/08/27 07:14:16;;;;;;;8.30;4.53;;;;;;;29.33;53.79;100165.23;124586;1099;104205;-77
2023/08/27 07:16:47;;;;;;;10.70;5.30;;;;;;;29.54;53.49;100155.20;124593;1099;104207;-78
2023/08/27 07:19:20;;;;;;;9.00;4.77;;;;;;;29.73;53.14;100155.16;124488;1099;101916;-77
2023/08/27 07:21:51;;;;;;;6.90;4.67;;;;;;;29.90;52.78;100151.65;124651;1099;104172;-78
2023/08/27 07:24:23;;;;;;;9.13;4.57;;;;;;;30.04;52.82;100162.64;124889;1099;104153;-78
2023/08/27 07:26:54;;;;;;;7.53;4.80;;;;;;;30.19;52.41;100143.89;124716;1099;104187;-77
2023/08/27 07:29:25;;;;;;;11.20;5.00;;;;;;;30.34;51.81;100148.52;124955;1099;102054;-78
2023/08/27 07:31:57;;;;;;;8.30;5.03;;;;;;;30.50;51.40;100142.33;124668;1102;104172;-77
2023/08/27 07:34:28;;;;;;;8.97;5.00;;;;;;;30.68;51.22;100143.16;125202;1102;102011;-78
2023/08/27 07:36:59;;;;;;;9.97;5.50;;;;;;;30.84;50.24;100141.39;124689;1102;104242;-78
2023/08/27 07:39:31;;;;;;;8.10;4.50;;;;;;;31.04;49.93;100143.03;124720;1102;104217;-78
2023/08/27 07:42:03;;;;;;;10.07;5.10;;;;;;;31.18;49.45;100137.71;124657;1102;104285;-78
2023/08/27 07:44:35;;;;;;;8.33;4.83;;;;;;;31.31;49.09;100139.73;124540;1101;104271;-76
2023/08/27 07:47:07;;;;;;;8.27;5.00;;;;;;;31.45;48.59;100136.24;124172;1102;104198;-75
2023/08/27 07:49:38;;;;;;;6.37;4.77;;;;;;;31.65;48.11;100137.81;124115;1102;104245;-73
2023/08/27 07:52:09;;;;;;;11.17;4.63;;;;;;;31.80;48.03;100131.49;124112;1102;110856;-75
2023/08/27 07:54:41;;;;;;;9.90;5.10;;;;;;;31.92;47.43;100129.91;124177;1102;101830;-76
2023/08/27 07:57:12;;;;;;;8.53;4.90;;;;;;;32.04;46.91;100125.60;124185;1101;104230;-78
2023/08/27 07:59:45;;;;;;;8.33;4.57;;;;;;;32.18;46.16;100122.95;124146;1102;104801;-74
2023/08/27 08:02:17;;;;;;;9.30;5.20;;;;;;;32.36;46.15;100130.94;124149;1099;104227;-76
2023/08/27 08:04:48;;;;;;;8.90;5.00;;;;;;;32.49;45.52;100133.77;124191;1102;104296;-75
2023/08/27 08:07:19;;;;;;;9.60;5.00;;;;;;;32.54;45.29;100123.52;124253;1102;102785;-75
2023/08/27 08:09:50;;;;;;;8.13;4.70;;;;;;;32.59;44.70;100121.38;124197;1099;102316;-77
2023/08/27 08:12:22;;;;;;;7.03;4.83;;;;;;;32.66;44.70;100120.03;124159;1099;104172;-76
2023/08/27 08:14:54;;;;;;;8.83;4.97;;;;;;;32.71;44.63;100117.03;124262;1102;102456;-76
2023/08/27 08:17:25;;;;;;;8.60;4.83;;;;;;;32.76;44.20;100110.34;124211;1102;104213;-75
2023/08/27 08:19:58;;;;;;;8.87;4.90;;;;;;;32.86;43.88;100115.20;124236;1102;101807;-76
2023/08/27 08:22:30;;;;;;;8.40;5.10;;;;;;;32.99;43.72;100113.46;124261;1101;104198;-76
2023/08/27 08:25:01;;;;;;;11.00;4.77;;;;;;;33.13;43.17;100124.30;124178;1099;104348;-76
2023/08/27 08:27:32;;;;;;;10.23;4.90;;;;;;;33.21;42.85;100101.20;124268;1102;104335;-76
2023/08/27 08:30:05;;;;;;;10.00;4.97;;;;;;;33.29;42.53;100104.31;124271;1102;104629;-75
2023/08/27 08:32:36;;;;;;;8.50;5.15;;;;;;;33.36;40.94;100102.05;124240;1102;104332;-78
2023/08/27 08:35:09;;;;;;;9.17;4.70;;;;;;;33.47;41.31;100103.10;124279;1101;104198;-78
2023/08/27 08:37:40;;;;;;;7.97;4.80;;;;;;;33.57;41.21;100105.21;124187;1102;101926;-78
2023/08/27 08:40:14;;;;;;;9.23;4.80;;;;;;;33.67;40.94;100098.16;124192;1102;104245;-76
2023/08/27 08:42:53;;;;;;;12.03;4.77;;;;;;;33.73;40.56;100097.78;124222;1102;101881;-76
2023/08/27 08:45:33;;;;;;;10.27;4.63;;;;;;;33.87;40.15;100098.70;124157;1102;104265;-76
2023/08/27 08:48:06;;;;;;;9.25;4.55;;;;;;;34.03;40.17;100094.83;124155;1101;104239;-77
2023/08/27 08:50:41;;;;;;;8.90;4.70;;;;;;;34.16;39.94;100088.53;125594;1100;104338;-76
2023/08/27 08:53:17;;;;;;;8.47;4.70;;;;;;;34.25;39.46;100096.06;124217;1100;104192;-77
2023/08/27 08:55:53;;;;;;;7.83;4.60;;;;;;;34.34;39.30;100087.25;124204;1102;101827;-76
2023/08/27 08:58:28;;;;;;;8.37;4.90;;;;;;;34.39;39.34;100085.09;124299;1101;104233;-76
2023/08/27 09:00:59;;;;;;;9.70;5.00;;;;;;;34.44;38.89;100083.88;124252;1102;103019;-77
2023/08/27 09:03:31;;;;;;;12.00;4.90;;;;;;;34.47;38.80;100089.11;124162;1102;107422;-77
2023/08/27 09:06:03;;;;;;;10.43;5.10;;;;;;;34.49;38.57;100082.58;124305;1102;101820;-77
2023/08/27 09:08:37;;;;;;;10.23;4.80;;;;;;;34.48;38.74;100077.23;124608;1099;101823;-76
2023/08/27 09:11:09;;;;;;;8.15;4.70;;;;;;;34.55;38.13;100079.42;124253;1102;104172;-77
2023/08/27 09:13:40;;;;;;;14.57;5.07;;;;;;;34.66;38.09;100075.06;124172;1102;104274;-77
2023/08/27 09:16:12;;;;;;;8.37;4.80;;;;;;;34.68;37.92;100068.50;124190;1101;102465;-76
2023/08/27 09:18:43;;;;;;;9.50;4.90;;;;;;;34.70;37.71;100069.28;124277;1102;104245;-77
2023/08/27 09:21:15;;;;;;;12.25;4.80;;;;;;;34.76;37.27;100069.84;124182;1102;104172;-78
2023/08/27 09:23:46;;;;;;;11.93;4.87;;;;;;;34.79;37.28;100069.62;124337;1102;104207;-77
2023/08/27 09:26:21;;;;;;;9.27;4.97;;;;;;;34.84;36.82;100064.70;124253;1099;104287;-79
2023/08/27 09:28:52;;;;;;;10.67;5.20;;;;;;;34.84;36.36;100067.42;124367;1102;104234;-77
2023/08/27 09:31:40;;;;;;;8.90;4.90;;;;;;;34.89;36.19;100067.95;124243;1102;104304;-76
2023/08/27 09:34:14;;;;;;;11.77;5.07;;;;;;;34.88;36.18;100058.05;124150;1102;111193;-77
2023/08/27 09:36:45;;;;;;;10.37;5.03;;;;;;;34.93;35.86;100055.85;124340;1102;101919;-76
2023/08/27 09:39:16;;;;;;;12.40;4.90;;;;;;;34.92;35.39;100062.27;124279;1102;104185;-77
2023/08/27 09:41:48;;;;;;;12.50;5.17;;;;;;;34.93;35.60;100058.58;124258;1102;104312;-78
2023/08/27 09:44:19;;;;;;;8.43;4.73;;;;;;;35.02;35.94;100046.14;124356;1102;104207;-79
2023/08/27 09:46:51;;;;;;;9.20;4.90;;;;;;;35.05;35.20;100046.77;124268;1100;104239;-78
2023/08/27 09:49:27;;;;;;;12.63;5.23;;;;;;;35.05;34.87;100044.05;124572;1101;102025;-78
2023/08/27 09:52:01;;;;;;;9.50;4.77;;;;;;;35.16;34.79;100035.06;124367;1102;104238;-78
2023/08/27 09:54:32;;;;;;;8.57;5.33;;;;;;;35.09;34.13;100029.21;124306;1102;104175;-79
2023/08/27 09:57:04;;;;;;;9.65;4.95;;;;;;;35.14;34.43;100026.14;124451;1102;102167;-79
2023/08/27 09:59:43;;;;;;;14.33;5.23;;;;;;;35.18;33.88;100019.45;124398;1102;104217;-77
2023/08/27 10:02:16;;;;;;;10.47;5.37;;;;;;;35.28;34.09;100016.96;124298;1100;104277;-77
2023/08/27 10:04:56;;;;;;;11.87;5.00;;;;;;;35.39;34.31;100017.01;124321;1102;102006;-77
2023/08/27 10:07:27;;;;;;;8.90;4.73;;;;;;;35.35;33.43;100012.76;124334;1102;105016;-77
2023/08/27 10:09:59;;;;;;;11.70;5.50;;;;;;;35.39;33.56;100007.94;124284;1102;104345;-78
2023/08/27 10:12:31;;;;;;;10.80;5.10;;;;;;;35.40;33.44;99999.63;124237;1102;101929;-75
2023/08/27 10:15:04;;;;;;;8.90;4.53;;;;;;;35.42;33.25;99999.52;124195;1100;104242;-76
2023/08/27 10:17:38;;;;;;;10.70;5.17;;;;;;;35.43;33.60;100004.85;124231;1101;101967;-76
2023/08/27 10:20:12;;;;;;;11.93;5.10;;;;;;;35.50;33.05;100004.39;124268;1102;104172;-78
2023/08/27 10:22:44;;;;;;;11.77;5.27;;;;;;;35.54;32.97;100004.03;124427;1102;102058;-79
2023/08/27 10:25:18;;;;;;;14.17;5.13;;;;;;;35.57;33.17;100002.94;124317;1102;111895;-79
2023/08/27 10:27:51;;;;;;;9.80;5.27;;;;;;;35.51;32.37;99998.81;124292;1102;101833;-79
2023/08/27 10:30:23;;;;;;;13.70;5.40;;;;;;;35.56;32.68;99998.46;124265;1102;104176;-76
2023/08/27 10:32:54;;;;;;;12.80;5.57;;;;;;;35.63;32.78;100003.33;124245;1102;104220;-78
2023/08/27 10:35:26;;;;;;;10.30;5.63;;;;;;;35.71;32.74;99996.41;124253;1102;104323;-77
2023/08/27 10:37:58;;;;;;;11.50;5.33;;;;;;;35.83;32.49;99998.22;124290;1102;104274;-79
2023/08/27 10:40:30;;;;;;;10.63;5.50;;;;;;;35.95;32.16;99996.37;124326;1102;104286;-79
2023/08/27 10:43:17;;;;;;;9.97;4.90;;;;;;;35.97;32.08;99998.00;124272;1102;104382;-77
2023/08/27 10:45:49;;;;;;;10.47;5.07;;;;;;;35.99;32.35;99997.88;124199;1102;107597;-79
2023/08/27 10:48:30;;;;;;;13.32;5.40;;;;;;;36.04;31.52;99983.86;124163;1102;104318;-75
2023/08/27 10:51:12;;;;;;;10.00;4.87;;;;;;;36.04;31.65;99986.59;124189;1102;104248;-77
2023/08/27 10:53:57;;;;;;;8.88;4.80;;;;;;;36.04;31.32;99981.98;124240;1102;104198;-76
2023/08/27 10:56:34;;;;;;;11.83;5.00;;;;;;;36.10;30.97;99986.11;124209;1102;117798;-75
2023/08/27 10:59:09;;;;;;;11.47;5.27;;;;;;;36.18;31.16;99983.63;124221;1102;104326;-78
2023/08/27 11:01:59;;;;;;;10.57;4.93;;;;;;;36.19;30.99;99982.64;124368;1102;104172;-77
2023/08/27 11:04:37;;;;;;;10.37;5.10;;;;;;;36.23;30.91;99983.25;124264;1102;104242;-76
2023/08/27 11:07:12;;;;;;;10.77;4.93;;;;;;;36.31;30.93;99978.10;124224;1100;104194;-75
2023/08/27 11:09:53;;;;;;;13.73;4.90;;;;;;;36.35;30.73;99974.97;124280;1102;102299;-76
2023/08/27 11:12:34;;;;;;;13.83;5.40;;;;;;;36.39;30.79;99972.88;124172;1100;104176;-75
2023/08/27 11:15:15;;;;;;;10.40;5.20;;;;;;;36.46;30.38;99973.23;124394;1102;101909;-77
2023/08/27 11:17:47;;;;;;;10.80;5.10;;;;;;;36.53;30.63;99975.34;124275;1102;104235;-77
2023/08/27 11:20:24;;;;;;;7.83;4.73;;;;;;;36.48;30.25;99963.94;124280;1100;104166;-77
2023/08/27 11:23:01;;;;;;;8.27;4.77;;;;;;;36.50;30.32;99961.08;124266;1102;104246;-78
2023/08/27 11:25:33;;;;;;;12.67;5.33;;;;;;;36.48;30.47;99965.77;124331;1102;101928;-78
2023/08/27 11:28:05;;;;;;;13.30;5.20;;;;;;;36.46;30.02;99949.51;124251;1102;102345;-75
2023/08/27 11:30:36;;;;;;;10.50;5.00;;;;;;;36.45;30.10;99953.26;124192;1102;104280;-76